sensor_id;sensor_type;location;lat;lon;timestamp;temperature;humidity
42803;DHT22;28447;48.682;9.022;2023-08-30T04:01:06;11.30;99.90
42803;DHT22;28447;48.682;9.022;2023-08-30T04:03:32;11.40;99.90
42803;DHT22;28447;48.682;9.022;2023-08-30T04:05:58;11.40;99.90
42803;DHT22;28447;48.682;9.022;2023-08-30T04:08:23;11.40;99.90
42803;DHT22;28447;48.682;9.022;2023-08-30T04:10:52;11.40;99.90
42803;DHT22;28447;48.682;9.022;2023-08-30T04:13:18;11.50;99.90
42803;DHT22;28447;48.682;9.022;2023-08-30T04:15:44;11.40;99.90
42803;DHT22;28447;48.682;9.022;2023-08-30T04:18:09;11.40;99.90
42803;DHT22;28447;48.682;9.022;2023-08-30T04:20:35;11.40;99.90
42803;DHT22;28447;48.682;9.022;2023-08-30T04:23:01;11.40;99.90
42803;DHT22;28447;48.682;9.022;2023-08-30T04:25:28;11.50;99.90
42803;DHT22;28447;48.682;9.022;2023-08-30T04:27:54;11.50;99.90
42803;DHT22;28447;48.682;9.022;2023-08-30T04:30:20;11.50;99.90
42803;DHT22;28447;48.682;9.022;2023-08-30T04:32:45;11.50;99.90
42803;DHT22;28447;48.682;9.022;2023-08-30T04:35:11;11.50;99.90
42803;DHT22;28447;48.682;9.022;2023-08-30T04:37:37;11.50;99.90
42803;DHT22;28447;48.682;9.022;2023-08-30T04:40:07;11.40;99.90
42803;DHT22;28447;48.682;9.022;2023-08-30T04:42:34;11.50;99.90
42803;DHT22;28447;48.682;9.022;2023-08-30T04:45:01;11.50;99.90
42803;DHT22;28447;48.682;9.022;2023-08-30T04:47:29;11.50;99.90
42803;DHT22;28447;48.682;9.022;2023-08-30T04:49:55;11.60;99.90
42803;DHT22;28447;48.682;9.022;2023-08-30T04:52:20;11.60;99.90
42803;DHT22;28447;48.682;9.022;2023-08-30T04:54:46;11.60;99.90
42803;DHT22;28447;48.682;9.022;2023-08-30T04:57:12;11.60;99.90
42803;DHT22;28447;48.682;9.022;2023-08-30T04:59:42;11.60;99.90
42803;DHT22;28447;48.682;9.022;2023-08-30T05:02:07;11.60;99.90
42803;DHT22;28447;48.682;9.022;2023-08-30T05:04:33;11.60;99.90
42803;DHT22;28447;48.682;9.022;2023-08-30T05:06:59;11.50;99.90
42803;DHT22;28447;48.682;9.022;2023-08-30T05:09:24;11.60;99.90
42803;DHT22;28447;48.682;9.022;2023-08-30T05:11:51;11.60;99.90
42803;DHT22;28447;48.682;9.022;2023-08-30T05:14:17;11.70;99.90
42803;DHT22;28447;48.682;9.022;2023-08-30T05:16:42;11.80;99.90
42803;DHT22;28447;48.682;9.022;2023-08-30T05:19:08;11.80;99.90
42803;DHT22;28447;48.682;9.022;2023-08-30T05:21:34;11.80;99.90
42803;DHT22;28447;48.682;9.022;2023-08-30T05:23:59;11.80;99.90
42803;DHT22;28447;48.682;9.022;2023-08-30T05:26:25;11.70;99.90
42803;DHT22;28447;48.682;9.022;2023-08-30T05:28:50;11.80;99.90
42803;DHT22;28447;48.682;9.022;2023-08-30T05:31:16;11.80;99.90
42803;DHT22;28447;48.682;9.022;2023-08-30T05:33:42;11.90;99.90
42803;DHT22;28447;48.682;9.022;2023-08-30T05:36:07;11.90;99.90
42803;DHT22;28447;48.682;9.022;2023-08-30T05:38:33;11.90;99.90
42803;DHT22;28447;48.682;9.022;2023-08-30T05:40:58;11.80;99.90
42803;DHT22;28447;48.682;9.022;2023-08-30T05:43:24;11.80;99.90
42803;DHT22;28447;48.682;9.022;2023-08-30T05:45:49;12.00;99.90
42803;DHT22;28447;48.682;9.022;2023-08-30T05:48:15;12.10;99.90
42803;DHT22;28447;48.682;9.022;2023-08-30T05:50:41;12.20;99.90
42803;DHT22;28447;48.682;9.022;2023-08-30T05:53:06;12.30;99.90
42803;DHT22;28447;48.682;9.022;2023-08-30T05:55:32;12.30;99.90
42803;DHT22;28447;48.682;9.022;2023-08-30T05:57:58;12.30;99.90
42803;DHT22;28447;48.682;9.022;2023-08-30T06:00:23;12.40;99.90
42803;DHT22;28447;48.682;9.022;2023-08-30T06:02:51;12.30;99.90
42803;DHT22;28447;48.682;9.022;2023-08-30T06:05:17;12.40;99.90
42803;DHT22;28447;48.682;9.022;2023-08-30T06:07:43;12.50;99.90
42803;DHT22;28447;48.682;9.022;2023-08-30T06:10:09;12.50;99.90
42803;DHT22;28447;48.682;9.022;2023-08-30T06:12:34;12.60;99.90
42803;DHT22;28447;48.682;9.022;2023-08-30T06:15:00;12.50;99.90
42803;DHT22;28447;48.682;9.022;2023-08-30T06:17:26;12.50;99.90
42803;DHT22;28447;48.682;9.022;2023-08-30T06:19:51;12.40;99.90
42803;DHT22;28447;48.682;9.022;2023-08-30T06:22:17;12.40;99.90
42803;DHT22;28447;48.682;9.022;2023-08-30T06:24:42;12.40;99.90
42803;DHT22;28447;48.682;9.022;2023-08-30T06:27:08;12.30;99.90
42803;DHT22;28447;48.682;9.022;2023-08-30T06:29:34;12.30;99.90
42803;DHT22;28447;48.682;9.022;2023-08-30T06:31:59;12.20;99.90
42803;DHT22;28447;48.682;9.022;2023-08-30T06:34:25;12.20;99.90
42803;DHT22;28447;48.682;9.022;2023-08-30T06:36:51;12.20;99.90
42803;DHT22;28447;48.682;9.022;2023-08-30T06:39:19;12.20;99.90
42803;DHT22;28447;48.682;9.022;2023-08-30T06:41:45;12.20;99.90
42803;DHT22;28447;48.682;9.022;2023-08-30T06:44:11;12.40;99.90
42803;DHT22;28447;48.682;9.022;2023-08-30T06:46:36;12.60;99.90
42803;DHT22;28447;48.682;9.022;2023-08-30T06:49:03;12.60;99.90
42803;DHT22;28447;48.682;9.022;2023-08-30T06:51:29;12.40;99.90
42803;DHT22;28447;48.682;9.022;2023-08-30T06:53:55;12.60;99.90
42803;DHT22;28447;48.682;9.022;2023-08-30T06:56:22;12.80;99.90
42803;DHT22;28447;48.682;9.022;2023-08-30T06:58:48;12.90;99.90
42803;DHT22;28447;48.682;9.022;2023-08-30T07:01:13;12.90;99.90
42803;DHT22;28447;48.682;9.022;2023-08-30T07:03:39;12.80;99.90
42803;DHT22;28447;48.682;9.022;2023-08-30T07:06:05;12.80;99.90
42803;DHT22;28447;48.682;9.022;2023-08-30T07:08:31;12.90;99.90
42803;DHT22;28447;48.682;9.022;2023-08-30T07:10:58;12.80;99.90
42803;DHT22;28447;48.682;9.022;2023-08-30T07:13:23;12.90;99.90
42803;DHT22;28447;48.682;9.022;2023-08-30T07:15:49;13.10;99.90
42803;DHT22;28447;48.682;9.022;2023-08-30T07:18:15;13.20;99.90
42803;DHT22;28447;48.682;9.022;2023-08-30T07:20:40;13.20;99.90
42803;DHT22;28447;48.682;9.022;2023-08-30T07:23:06;13.00;99.90
42803;DHT22;28447;48.682;9.022;2023-08-30T07:25:31;12.90;99.90
42803;DHT22;28447;48.682;9.022;2023-08-30T07:28:02;13.20;99.90
42803;DHT22;28447;48.682;9.022;2023-08-30T07:30:28;13.30;99.90
42803;DHT22;28447;48.682;9.022;2023-08-30T07:32:54;13.00;99.90
42803;DHT22;28447;48.682;9.022;2023-08-30T07:35:20;12.90;99.90
42803;DHT22;28447;48.682;9.022;2023-08-30T07:37:46;13.00;99.90
42803;DHT22;28447;48.682;9.022;2023-08-30T07:40:12;13.00;99.90
42803;DHT22;28447;48.682;9.022;2023-08-30T07:42:37;12.80;99.90
42803;DHT22;28447;48.682;9.022;2023-08-30T07:45:03;12.90;99.90
42803;DHT22;28447;48.682;9.022;2023-08-30T07:47:29;13.00;99.90
42803;DHT22;28447;48.682;9.022;2023-08-30T07:49:55;12.90;99.90
42803;DHT22;28447;48.682;9.022;2023-08-30T07:52:21;13.10;99.90
42803;DHT22;28447;48.682;9.022;2023-08-30T07:54:47;12.80;99.90
42803;DHT22;28447;48.682;9.022;2023-08-30T07:57:12;12.70;99.90
42803;DHT22;28447;48.682;9.022;2023-08-30T07:59:39;12.90;99.90
42803;DHT22;28447;48.682;9.022;2023-08-30T08:02:05;12.90;99.90
42803;DHT22;28447;48.682;9.022;2023-08-30T08:04:37;13.20;99.90
42803;DHT22;28447;48.682;9.022;2023-08-30T08:07:03;13.50;99.90
42803;DHT22;28447;48.682;9.022;2023-08-30T08:09:30;13.80;99.90
42803;DHT22;28447;48.682;9.022;2023-08-30T08:11:55;14.20;99.90
42803;DHT22;28447;48.682;9.022;2023-08-30T08:14:22;13.70;99.90
42803;DHT22;28447;48.682;9.022;2023-08-30T08:16:48;13.80;99.90
42803;DHT22;28447;48.682;9.022;2023-08-30T08:19:14;13.80;99.90
42803;DHT22;28447;48.682;9.022;2023-08-30T08:21:39;14.20;99.90
42803;DHT22;28447;48.682;9.022;2023-08-30T08:24:05;14.70;99.90
42803;DHT22;28447;48.682;9.022;2023-08-30T08:26:31;14.60;99.90
42803;DHT22;28447;48.682;9.022;2023-08-30T08:28:57;14.70;99.90
42803;DHT22;28447;48.682;9.022;2023-08-30T08:31:23;15.00;99.90
42803;DHT22;28447;48.682;9.022;2023-08-30T08:34:11;14.90;99.90
42803;DHT22;28447;48.682;9.022;2023-08-30T08:36:41;15.00;99.90
42803;DHT22;28447;48.682;9.022;2023-08-30T08:39:07;15.30;99.90
42803;DHT22;28447;48.682;9.022;2023-08-30T08:41:40;15.20;99.90
42803;DHT22;28447;48.682;9.022;2023-08-30T08:44:10;15.80;99.90
42803;DHT22;28447;48.682;9.022;2023-08-30T08:46:38;15.80;99.90
42803;DHT22;28447;48.682;9.022;2023-08-30T08:49:17;16.20;99.90
42803;DHT22;28447;48.682;9.022;2023-08-30T08:51:44;16.00;99.90
42803;DHT22;28447;48.682;9.022;2023-08-30T08:54:11;16.50;99.90
42803;DHT22;28447;48.682;9.022;2023-08-30T08:56:37;16.60;99.90
42803;DHT22;28447;48.682;9.022;2023-08-30T08:59:04;16.70;99.90
42803;DHT22;28447;48.682;9.022;2023-08-30T09:01:31;16.10;99.90
42803;DHT22;28447;48.682;9.022;2023-08-30T09:03:59;16.20;99.90
42803;DHT22;28447;48.682;9.022;2023-08-30T09:06:25;16.20;99.90
42803;DHT22;28447;48.682;9.022;2023-08-30T09:08:50;15.90;99.90
42803;DHT22;28447;48.682;9.022;2023-08-30T09:11:16;16.00;99.90
42803;DHT22;28447;48.682;9.022;2023-08-30T09:13:45;15.60;99.90
42803;DHT22;28447;48.682;9.022;2023-08-30T09:16:14;15.60;99.90
42803;DHT22;28447;48.682;9.022;2023-08-30T09:18:43;16.00;99.90
42803;DHT22;28447;48.682;9.022;2023-08-30T09:21:09;16.00;99.90
42803;DHT22;28447;48.682;9.022;2023-08-30T09:26:02;15.90;99.90
42803;DHT22;28447;48.682;9.022;2023-08-30T09:28:29;17.40;99.90
42803;DHT22;28447;48.682;9.022;2023-08-30T09:30:58;17.20;99.90
42803;DHT22;28447;48.682;9.022;2023-08-30T09:33:31;17.80;99.90
42803;DHT22;28447;48.682;9.022;2023-08-30T09:35:57;17.10;99.90
42803;DHT22;28447;48.682;9.022;2023-08-30T09:38:24;17.10;99.90
42803;DHT22;28447;48.682;9.022;2023-08-30T09:40:50;17.40;99.90
42803;DHT22;28447;48.682;9.022;2023-08-30T09:43:19;17.50;99.90
42803;DHT22;28447;48.682;9.022;2023-08-30T09:45:47;17.70;99.90
42803;DHT22;28447;48.682;9.022;2023-08-30T09:48:13;17.50;99.90
42803;DHT22;28447;48.682;9.022;2023-08-30T09:50:39;18.30;99.90
42803;DHT22;28447;48.682;9.022;2023-08-30T09:53:08;17.80;99.90
42803;DHT22;28447;48.682;9.022;2023-08-30T09:55:35;18.00;99.90
42803;DHT22;28447;48.682;9.022;2023-08-30T09:58:02;18.30;99.90
42803;DHT22;28447;48.682;9.022;2023-08-30T10:02:58;18.10;99.90
42803;DHT22;28447;48.682;9.022;2023-08-30T10:05:24;19.10;99.90
42803;DHT22;28447;48.682;9.022;2023-08-30T10:07:52;18.90;99.90
42803;DHT22;28447;48.682;9.022;2023-08-30T10:10:19;18.80;99.90
42803;DHT22;28447;48.682;9.022;2023-08-30T10:12:46;18.70;99.90
42803;DHT22;28447;48.682;9.022;2023-08-30T10:15:13;19.00;99.90
42803;DHT22;28447;48.682;9.022;2023-08-30T10:17:43;19.80;99.90
42803;DHT22;28447;48.682;9.022;2023-08-30T10:20:11;20.10;99.90
42803;DHT22;28447;48.682;9.022;2023-08-30T10:22:38;19.50;99.90
42803;DHT22;28447;48.682;9.022;2023-08-30T10:25:18;18.70;99.90
42803;DHT22;28447;48.682;9.022;2023-08-30T10:27:46;18.20;99.90
42803;DHT22;28447;48.682;9.022;2023-08-30T10:30:15;18.40;99.90
42803;DHT22;28447;48.682;9.022;2023-08-30T10:32:43;18.70;99.90
42803;DHT22;28447;48.682;9.022;2023-08-30T10:35:18;18.70;99.90
42803;DHT22;28447;48.682;9.022;2023-08-30T10:37:54;19.40;99.90
42803;DHT22;28447;48.682;9.022;2023-08-30T10:40:21;19.00;99.90
42803;DHT22;28447;48.682;9.022;2023-08-30T10:42:58;19.30;99.90
42803;DHT22;28447;48.682;9.022;2023-08-30T10:45:23;19.30;99.90
42803;DHT22;28447;48.682;9.022;2023-08-30T10:47:54;18.70;99.90
42803;DHT22;28447;48.682;9.022;2023-08-30T10:50:31;19.30;99.90
42803;DHT22;28447;48.682;9.022;2023-08-30T10:52:57;19.10;99.90
42803;DHT22;28447;48.682;9.022;2023-08-30T10:55:23;19.80;99.90
42803;DHT22;28447;48.682;9.022;2023-08-30T10:57:59;19.80;99.90
42803;DHT22;28447;48.682;9.022;2023-08-30T11:00:27;20.50;99.90
42803;DHT22;28447;48.682;9.022;2023-08-30T11:02:53;20.60;99.90
42803;DHT22;28447;48.682;9.022;2023-08-30T11:05:21;20.20;99.90
42803;DHT22;28447;48.682;9.022;2023-08-30T11:07:48;19.80;99.90
42803;DHT22;28447;48.682;9.022;2023-08-30T11:10:17;20.40;99.90
42803;DHT22;28447;48.682;9.022;2023-08-30T11:12:44;20.50;99.90
42803;DHT22;28447;48.682;9.022;2023-08-30T11:15:11;20.90;99.90
42803;DHT22;28447;48.682;9.022;2023-08-30T11:17:37;22.30;99.90
42803;DHT22;28447;48.682;9.022;2023-08-30T11:20:13;20.90;99.90
42803;DHT22;28447;48.682;9.022;2023-08-30T11:22:43;21.00;99.90
42803;DHT22;28447;48.682;9.022;2023-08-30T11:25:11;22.30;99.90
42803;DHT22;28447;48.682;9.022;2023-08-30T11:27:37;21.30;99.90
42803;DHT22;28447;48.682;9.022;2023-08-30T11:30:04;21.80;99.90
42803;DHT22;28447;48.682;9.022;2023-08-30T11:32:34;20.40;99.90
42803;DHT22;28447;48.682;9.022;2023-08-30T11:35:00;19.20;99.90
42803;DHT22;28447;48.682;9.022;2023-08-30T11:37:27;18.50;99.90
42803;DHT22;28447;48.682;9.022;2023-08-30T11:39:54;18.10;99.90
42803;DHT22;28447;48.682;9.022;2023-08-30T11:42:21;17.10;99.90
42803;DHT22;28447;48.682;9.022;2023-08-30T11:44:47;16.40;99.90
42803;DHT22;28447;48.682;9.022;2023-08-30T11:47:24;16.00;99.90
42803;DHT22;28447;48.682;9.022;2023-08-30T11:49:52;15.70;99.90
42803;DHT22;28447;48.682;9.022;2023-08-30T11:52:18;15.40;99.90
42803;DHT22;28447;48.682;9.022;2023-08-30T11:54:49;15.20;99.90
42803;DHT22;28447;48.682;9.022;2023-08-30T11:57:15;14.90;99.90
42803;DHT22;28447;48.682;9.022;2023-08-30T11:59:41;15.10;99.90
42803;DHT22;28447;48.682;9.022;2023-08-30T12:02:06;15.10;99.90
42803;DHT22;28447;48.682;9.022;2023-08-30T12:04:32;15.50;99.90
42803;DHT22;28447;48.682;9.022;2023-08-30T12:06:58;15.70;99.90
42803;DHT22;28447;48.682;9.022;2023-08-30T12:09:30;15.70;99.90
42803;DHT22;28447;48.682;9.022;2023-08-30T12:12:11;15.90;99.90
42803;DHT22;28447;48.682;9.022;2023-08-30T12:14:37;15.90;99.90
42803;DHT22;28447;48.682;9.022;2023-08-30T12:17:04;16.10;99.90
42803;DHT22;28447;48.682;9.022;2023-08-30T12:19:30;16.10;99.90
42803;DHT22;28447;48.682;9.022;2023-08-30T12:21:56;16.50;99.90
42803;DHT22;28447;48.682;9.022;2023-08-30T12:24:22;16.90;99.90
42803;DHT22;28447;48.682;9.022;2023-08-30T12:26:48;16.70;99.90
42803;DHT22;28447;48.682;9.022;2023-08-30T12:29:14;16.80;99.90
42803;DHT22;28447;48.682;9.022;2023-08-30T12:31:39;17.20;99.90
42803;DHT22;28447;48.682;9.022;2023-08-30T12:34:05;17.30;99.90
42803;DHT22;28447;48.682;9.022;2023-08-30T12:36:30;17.30;99.90
42803;DHT22;28447;48.682;9.022;2023-08-30T12:38:57;17.80;99.90
42803;DHT22;28447;48.682;9.022;2023-08-30T12:41:23;18.00;99.90
42803;DHT22;28447;48.682;9.022;2023-08-30T12:43:49;18.20;99.90
42803;DHT22;28447;48.682;9.022;2023-08-30T12:46:15;18.20;99.90
42803;DHT22;28447;48.682;9.022;2023-08-30T12:48:41;18.30;99.90
42803;DHT22;28447;48.682;9.022;2023-08-30T12:51:06;18.50;99.90
42803;DHT22;28447;48.682;9.022;2023-08-30T12:53:32;18.10;99.90
42803;DHT22;28447;48.682;9.022;2023-08-30T12:55:58;17.80;99.90
42803;DHT22;28447;48.682;9.022;2023-08-30T12:58:23;17.90;99.90
42803;DHT22;28447;48.682;9.022;2023-08-30T13:00:49;18.20;99.90
42803;DHT22;28447;48.682;9.022;2023-08-30T13:03:18;18.50;99.90
42803;DHT22;28447;48.682;9.022;2023-08-30T13:05:43;18.40;99.90
42803;DHT22;28447;48.682;9.022;2023-08-30T13:08:09;18.20;99.90
42803;DHT22;28447;48.682;9.022;2023-08-30T13:10:34;18.40;99.90
42803;DHT22;28447;48.682;9.022;2023-08-30T13:13:00;19.30;99.90
42803;DHT22;28447;48.682;9.022;2023-08-30T13:15:26;20.70;99.90
42803;DHT22;28447;48.682;9.022;2023-08-30T13:17:51;21.90;99.90
42803;DHT22;28447;48.682;9.022;2023-08-30T13:20:18;22.40;99.90
42803;DHT22;28447;48.682;9.022;2023-08-30T13:22:43;24.20;99.90
42803;DHT22;28447;48.682;9.022;2023-08-30T13:25:09;24.60;99.90
42803;DHT22;28447;48.682;9.022;2023-08-30T13:27:35;25.10;99.90
42803;DHT22;28447;48.682;9.022;2023-08-30T13:30:00;25.40;99.90
42803;DHT22;28447;48.682;9.022;2023-08-30T13:32:26;25.40;99.90
42803;DHT22;28447;48.682;9.022;2023-08-30T13:34:52;24.40;99.90
42803;DHT22;28447;48.682;9.022;2023-08-30T13:37:18;23.30;99.90
42803;DHT22;28447;48.682;9.022;2023-08-30T13:39:44;22.50;99.90
42803;DHT22;28447;48.682;9.022;2023-08-30T13:42:09;22.10;99.90
42803;DHT22;28447;48.682;9.022;2023-08-30T13:44:35;21.70;99.90
42803;DHT22;28447;48.682;9.022;2023-08-30T13:47:05;21.10;99.90
42803;DHT22;28447;48.682;9.022;2023-08-30T13:49:31;20.80;99.90
42803;DHT22;28447;48.682;9.022;2023-08-30T13:51:58;20.90;99.90
42803;DHT22;28447;48.682;9.022;2023-08-30T13:54:24;22.10;99.90
42803;DHT22;28447;48.682;9.022;2023-08-30T13:56:49;22.30;99.90
42803;DHT22;28447;48.682;9.022;2023-08-30T13:59:16;22.20;99.90
42803;DHT22;28447;48.682;9.022;2023-08-30T14:01:41;21.40;99.90
42803;DHT22;28447;48.682;9.022;2023-08-30T14:04:08;21.30;99.90
42803;DHT22;28447;48.682;9.022;2023-08-30T14:06:33;22.30;99.90
42803;DHT22;28447;48.682;9.022;2023-08-30T14:08:59;21.80;99.90
42803;DHT22;28447;48.682;9.022;2023-08-30T14:11:25;21.50;99.90
42803;DHT22;28447;48.682;9.022;2023-08-30T14:13:50;21.60;99.90
42803;DHT22;28447;48.682;9.022;2023-08-30T14:16:16;21.30;99.90
42803;DHT22;28447;48.682;9.022;2023-08-30T14:18:43;21.30;99.90
42803;DHT22;28447;48.682;9.022;2023-08-30T14:21:09;21.10;99.90
42803;DHT22;28447;48.682;9.022;2023-08-30T14:23:34;21.20;99.90
42803;DHT22;28447;48.682;9.022;2023-08-30T14:26:02;21.30;99.90
42803;DHT22;28447;48.682;9.022;2023-08-30T14:28:36;20.60;99.90
42803;DHT22;28447;48.682;9.022;2023-08-30T14:31:02;19.90;99.90
42803;DHT22;28447;48.682;9.022;2023-08-30T14:33:29;19.60;99.90
42803;DHT22;28447;48.682;9.022;2023-08-30T14:35:54;19.30;99.90
42803;DHT22;28447;48.682;9.022;2023-08-30T14:38:21;19.10;99.90
42803;DHT22;28447;48.682;9.022;2023-08-30T14:40:57;19.00;99.90
42803;DHT22;28447;48.682;9.022;2023-08-30T14:43:23;18.90;99.90
42803;DHT22;28447;48.682;9.022;2023-08-30T14:45:49;18.90;99.90
42803;DHT22;28447;48.682;9.022;2023-08-30T14:48:14;19.00;99.90
42803;DHT22;28447;48.682;9.022;2023-08-30T14:50:40;18.90;99.90
42803;DHT22;28447;48.682;9.022;2023-08-30T14:53:06;19.20;99.90
42803;DHT22;28447;48.682;9.022;2023-08-30T14:55:33;19.40;99.90
42803;DHT22;28447;48.682;9.022;2023-08-30T14:57:59;19.40;99.90
42803;DHT22;28447;48.682;9.022;2023-08-30T15:00:25;19.50;99.90
42803;DHT22;28447;48.682;9.022;2023-08-30T15:02:51;19.60;99.90
42803;DHT22;28447;48.682;9.022;2023-08-30T15:05:18;19.90;99.90
42803;DHT22;28447;48.682;9.022;2023-08-30T15:07:43;20.10;99.90
42803;DHT22;28447;48.682;9.022;2023-08-30T15:10:09;20.10;99.90
42803;DHT22;28447;48.682;9.022;2023-08-30T15:12:36;20.10;99.90
42803;DHT22;28447;48.682;9.022;2023-08-30T15:15:02;20.00;99.90
42803;DHT22;28447;48.682;9.022;2023-08-30T15:17:28;20.00;99.90
42803;DHT22;28447;48.682;9.022;2023-08-30T15:19:54;19.80;99.90
42803;DHT22;28447;48.682;9.022;2023-08-30T15:22:19;19.90;99.90
42803;DHT22;28447;48.682;9.022;2023-08-30T15:24:45;20.00;99.90
42803;DHT22;28447;48.682;9.022;2023-08-30T15:27:11;20.30;99.90
42803;DHT22;28447;48.682;9.022;2023-08-30T15:29:36;20.90;99.90
42803;DHT22;28447;48.682;9.022;2023-08-30T15:32:02;20.60;99.90
42803;DHT22;28447;48.682;9.022;2023-08-30T15:34:28;20.90;99.90
42803;DHT22;28447;48.682;9.022;2023-08-30T15:36:53;21.00;99.90
42803;DHT22;28447;48.682;9.022;2023-08-30T15:39:19;21.80;99.90
42803;DHT22;28447;48.682;9.022;2023-08-30T15:41:45;23.20;99.90
42803;DHT22;28447;48.682;9.022;2023-08-30T15:44:12;23.70;99.90
42803;DHT22;28447;48.682;9.022;2023-08-30T15:46:37;24.30;99.90
42803;DHT22;28447;48.682;9.022;2023-08-30T15:49:03;23.50;99.90
42803;DHT22;28447;48.682;9.022;2023-08-30T15:51:29;22.90;99.90
42803;DHT22;28447;48.682;9.022;2023-08-30T15:53:54;22.60;99.90
42803;DHT22;28447;48.682;9.022;2023-08-30T15:56:20;22.80;99.90
42803;DHT22;28447;48.682;9.022;2023-08-30T15:58:47;22.30;99.90
42803;DHT22;28447;48.682;9.022;2023-08-30T16:01:13;22.90;99.90
42803;DHT22;28447;48.682;9.022;2023-08-30T16:03:40;23.80;99.90
42803;DHT22;28447;48.682;9.022;2023-08-30T16:06:06;24.40;99.90
42803;DHT22;28447;48.682;9.022;2023-08-30T16:08:32;23.00;99.90
42803;DHT22;28447;48.682;9.022;2023-08-30T16:10:58;24.40;99.90
42803;DHT22;28447;48.682;9.022;2023-08-30T16:13:25;24.40;99.90
42803;DHT22;28447;48.682;9.022;2023-08-30T16:15:51;24.00;99.90
42803;DHT22;28447;48.682;9.022;2023-08-30T16:18:16;23.00;99.90
42803;DHT22;28447;48.682;9.022;2023-08-30T16:20:42;21.90;99.90
42803;DHT22;28447;48.682;9.022;2023-08-30T16:23:08;22.10;99.90
42803;DHT22;28447;48.682;9.022;2023-08-30T16:25:34;21.50;99.90
42803;DHT22;28447;48.682;9.022;2023-08-30T16:28:00;21.30;99.90
42803;DHT22;28447;48.682;9.022;2023-08-30T16:30:26;21.30;99.90
42803;DHT22;28447;48.682;9.022;2023-08-30T16:32:54;21.50;99.90
42803;DHT22;28447;48.682;9.022;2023-08-30T16:35:20;21.70;99.90
42803;DHT22;28447;48.682;9.022;2023-08-30T16:37:46;22.10;99.90
42803;DHT22;28447;48.682;9.022;2023-08-30T16:40:11;22.00;99.90
42803;DHT22;28447;48.682;9.022;2023-08-30T16:42:37;21.70;99.90
42803;DHT22;28447;48.682;9.022;2023-08-30T16:45:03;21.20;99.90
42803;DHT22;28447;48.682;9.022;2023-08-30T16:47:28;20.90;99.90
42803;DHT22;28447;48.682;9.022;2023-08-30T16:49:54;20.50;99.90
42803;DHT22;28447;48.682;9.022;2023-08-30T16:52:20;20.50;99.90
42803;DHT22;28447;48.682;9.022;2023-08-30T16:54:46;20.20;99.90
42803;DHT22;28447;48.682;9.022;2023-08-30T16:57:12;20.40;99.90
42803;DHT22;28447;48.682;9.022;2023-08-30T16:59:38;20.30;99.90
42803;DHT22;28447;48.682;9.022;2023-08-30T17:02:04;19.90;99.90
42803;DHT22;28447;48.682;9.022;2023-08-30T17:04:30;20.00;99.90
42803;DHT22;28447;48.682;9.022;2023-08-30T17:06:56;19.80;99.90
42803;DHT22;28447;48.682;9.022;2023-08-30T17:09:32;19.90;99.90
42803;DHT22;28447;48.682;9.022;2023-08-30T17:11:59;19.80;99.90
42803;DHT22;28447;48.682;9.022;2023-08-30T17:14:25;19.60;99.90
42803;DHT22;28447;48.682;9.022;2023-08-30T17:16:51;19.30;99.90
42803;DHT22;28447;48.682;9.022;2023-08-30T17:19:17;19.00;99.90
42803;DHT22;28447;48.682;9.022;2023-08-30T17:21:42;18.70;99.90
42803;DHT22;28447;48.682;9.022;2023-08-30T17:24:08;18.60;99.90
42803;DHT22;28447;48.682;9.022;2023-08-30T17:26:34;18.50;99.90
42803;DHT22;28447;48.682;9.022;2023-08-30T17:28:59;18.40;99.90
42803;DHT22;28447;48.682;9.022;2023-08-30T17:31:25;18.30;99.90
42803;DHT22;28447;48.682;9.022;2023-08-30T17:33:52;18.30;99.90
42803;DHT22;28447;48.682;9.022;2023-08-30T17:36:18;18.30;99.90
42803;DHT22;28447;48.682;9.022;2023-08-30T17:38:43;18.20;99.90
42803;DHT22;28447;48.682;9.022;2023-08-30T17:41:09;18.10;99.90
42803;DHT22;28447;48.682;9.022;2023-08-30T17:43:38;18.00;99.90
42803;DHT22;28447;48.682;9.022;2023-08-30T17:46:04;17.90;99.90
42803;DHT22;28447;48.682;9.022;2023-08-30T17:48:30;18.00;99.90
42803;DHT22;28447;48.682;9.022;2023-08-30T17:50:59;18.00;99.90
42803;DHT22;28447;48.682;9.022;2023-08-30T17:53:26;17.90;99.90
42803;DHT22;28447;48.682;9.022;2023-08-30T17:55:58;17.60;99.90
42803;DHT22;28447;48.682;9.022;2023-08-30T17:58:25;17.40;99.90
42803;DHT22;28447;48.682;9.022;2023-08-30T18:00:53;17.30;99.90
42803;DHT22;28447;48.682;9.022;2023-08-30T18:03:22;17.20;99.90
42803;DHT22;28447;48.682;9.022;2023-08-30T18:05:48;17.10;99.90
42803;DHT22;28447;48.682;9.022;2023-08-30T18:08:16;17.10;99.90
42803;DHT22;28447;48.682;9.022;2023-08-30T18:10:42;16.90;99.90
42803;DHT22;28447;48.682;9.022;2023-08-30T18:13:08;16.90;99.90
42803;DHT22;28447;48.682;9.022;2023-08-30T18:15:37;16.90;99.90
42803;DHT22;28447;48.682;9.022;2023-08-30T18:18:04;16.70;99.90
42803;DHT22;28447;48.682;9.022;2023-08-30T18:20:30;16.60;99.90
42803;DHT22;28447;48.682;9.022;2023-08-30T18:22:55;16.50;99.90
42803;DHT22;28447;48.682;9.022;2023-08-30T18:25:21;16.40;99.90
42803;DHT22;28447;48.682;9.022;2023-08-30T18:27:47;16.20;99.90
42803;DHT22;28447;48.682;9.022;2023-08-30T18:30:12;16.20;99.90
42803;DHT22;28447;48.682;9.022;2023-08-30T18:32:38;16.10;99.90
42803;DHT22;28447;48.682;9.022;2023-08-30T18:35:04;16.10;99.90
42803;DHT22;28447;48.682;9.022;2023-08-30T18:37:30;15.90;99.90
42803;DHT22;28447;48.682;9.022;2023-08-30T18:39:58;15.90;99.90
42803;DHT22;28447;48.682;9.022;2023-08-30T18:42:24;16.00;99.90
42803;DHT22;28447;48.682;9.022;2023-08-30T18:44:49;15.80;99.90
42803;DHT22;28447;48.682;9.022;2023-08-30T18:47:15;15.60;99.90
42803;DHT22;28447;48.682;9.022;2023-08-30T18:49:45;15.60;99.90
42803;DHT22;28447;48.682;9.022;2023-08-30T18:52:11;15.50;99.90
42803;DHT22;28447;48.682;9.022;2023-08-30T18:54:36;15.50;99.90
42803;DHT22;28447;48.682;9.022;2023-08-30T18:57:09;15.50;99.90
42803;DHT22;28447;48.682;9.022;2023-08-30T18:59:35;15.60;99.90
42803;DHT22;28447;48.682;9.022;2023-08-30T19:02:00;15.50;99.90
42803;DHT22;28447;48.682;9.022;2023-08-30T19:04:26;15.60;99.90
42803;DHT22;28447;48.682;9.022;2023-08-30T19:06:51;15.70;99.90
42803;DHT22;28447;48.682;9.022;2023-08-30T19:09:17;15.70;99.90
42803;DHT22;28447;48.682;9.022;2023-08-30T19:11:44;15.80;99.90
42803;DHT22;28447;48.682;9.022;2023-08-30T19:14:09;15.80;99.90
42803;DHT22;28447;48.682;9.022;2023-08-30T19:16:35;15.80;99.90
42803;DHT22;28447;48.682;9.022;2023-08-30T19:19:01;15.70;99.90
42803;DHT22;28447;48.682;9.022;2023-08-30T19:21:27;15.60;99.90
42803;DHT22;28447;48.682;9.022;2023-08-30T19:23:52;15.70;99.90
42803;DHT22;28447;48.682;9.022;2023-08-30T19:26:18;15.70;99.90
42803;DHT22;28447;48.682;9.022;2023-08-30T19:28:44;15.70;99.90
42803;DHT22;28447;48.682;9.022;2023-08-30T19:31:10;15.70;99.90